Camdenton, MO

4:49 AM CDT on September 16, 2014 (GMT -0500)
Jefferson City Memorial | Change Station
CLOSE
Current Station
Airport
Location: Jefferson City,
Elevation: 548 ft
Nearby Weather Stations

Elev 548 ft 38.59 °N, 92.16 °W | Updated 56 minutes ago

Fog
Fog
60 °F
Feels Like 60 °F
N
7
Wind Variable Wind from NE

Today
High -- | Low -- °F
--% Chance of Precip.
Yesterday
High -- | Low -- °F
Precip. -- in
6:53 AM 7:17 PM
Waning Gibbous, 47% visible
Pressure 30.18 in
Visibility 10.0 miles
Clouds Overcast 1400 ft
Dew Point 54 °F
Humidity 80%
Rainfall 0.00 in
Snow Depth Not available.
UV 0 out of 12
Pollen 5.00 out of 12
Air Quality Not available.
Flu Activity Not available.
METAR KJEF 160853Z AUTO 05006KT 10SM OVC014 16/12 A3022 RMK AO2 SLP220 T01560122 51006

More Conditions Fewer Conditions

Pressure 30.18 in
Visibility 10.0 miles
Clouds Overcast 1400 ft
Dew Point 54 °F
Humidity 80%
Rainfall 0.00 in
Snow Depth Not available.
UV 0 out of 12
Pollen 5.00 out of 12
Air Quality Not available.
Flu Activity Not available.
METAR KJEF 160853Z AUTO 05006KT 10SM OVC014 16/12 A3022 RMK AO2 SLP220 T01560122 51006

More Conditions Fewer Conditions

10-Day Weather Forecast

Almanac

Astronomy

Sep. 16, 2014 Rise Set
Actual Time 6:53 AM CDT 7:17 PM CDT
Civil Twilight 6:27 AM CDT 7:43 PM CDT
Nautical Twilight 5:56 AM CDT 8:14 PM CDT
Astronomical Twilight 5:24 AM CDT 8:46 PM CDT
Moon 12:08 AM CDT 2:37 PM CDT
Length of Visible Light 13h 16m
Length of Day
12h 23m
Tomorrow will be 2m 25s shorter.
Waning Gibbous, 47% of the Moon is Illuminated
Today
Waning Gibbous
Sep 24
New
Oct 1
First Quarter
Oct 8
Full
Oct 15
Last Quarter

Today's Extremes

State Highs State Lows

Community

WunderPhotos

Upload Photos

1,753,714 photos uploaded!

WunderBlogs® & News

Nearby

Snow Depth

Station Depth Elevation
No new snow has been reported.

Earthquake Activity

City Distance Mag. Time & Date
No recent earthquake activity has been reported nearby.
Minimum magnitude displayed is 2.5.

Coastal Water Temperatures

Place Temperature
No Stations Reporting

Nearby Weather Stations